Time;durP1;ratioP1;P1;durP2;ratioP2;P2;SDS_P1;SDS_P2;PMS_P1;PMS_P2;Temp;Humidity;BMP_temperature;BMP_pressure;BME280_temperature;BME280_humidity;BME280_pressure;Samples;Min_cycle;Max_cycle;Signal;HPM_P1;HPM_P2
2023/01/11 00:02:15;;;;;;;5.80;4.03;;;;;;;;;;5019881;28;20042;-62
2023/01/11 00:04:41;;;;;;;4.15;3.60;;;;;;;;;;5012643;28;20403;-62
2023/01/11 00:07:07;;;;;;;4.75;3.95;;;;;;;;;;5014636;28;20038;-61
2023/01/11 00:09:33;;;;;;;4.40;3.28;;;;;;;;;;5011276;28;20046;-62
2023/01/11 00:11:59;;;;;;;5.22;4.15;;;;;;;;;;5012464;28;20048;-62
2023/01/11 00:14:25;;;;;;;4.85;4.00;;;;;;;;;;5011602;28;20042;-63
2023/01/11 00:16:51;;;;;;;6.35;3.55;;;;;;;;;;5012537;28;20034;-63
2023/01/11 00:19:17;;;;;;;5.55;3.80;;;;;;;;;;5012051;28;20069;-62
2023/01/11 00:21:43;;;;;;;6.10;4.32;;;;;;;;;;5012302;28;20074;-63
2023/01/11 00:24:09;;;;;;;7.75;4.30;;;;;;;;;;5012477;28;20426;-63
2023/01/11 00:26:35;;;;;;;5.85;4.43;;;;;;;;;;5007462;28;20038;-62
2023/01/11 00:29:01;;;;;;;6.32;4.53;;;;;;;;;;5007442;28;20117;-62
2023/01/11 00:31:27;;;;;;;7.05;4.45;;;;;;;;;;5010164;28;20048;-62
2023/01/11 00:33:53;;;;;;;6.00;4.35;;;;;;;;;;5008572;28;20034;-63
2023/01/11 00:36:19;;;;;;;4.75;3.65;;;;;;;;;;5010275;28;20647;-63
2023/01/11 00:38:50;;;;;;;5.00;4.10;;;;;;;;;;5011666;28;20123;-63
2023/01/11 00:49:31;;;;;;;5.20;4.00;;;;;;;;;;4992812;28;20107;-63
2023/01/11 00:51:57;;;;;;;4.20;3.50;;;;;;;;;;5012406;28;20046;-63
2023/01/11 00:54:23;;;;;;;4.18;3.42;;;;;;;;;;5011126;28;20046;-62
2023/01/11 00:56:49;;;;;;;3.40;2.70;;;;;;;;;;5010646;28;20045;-62
2023/01/11 00:59:15;;;;;;;3.78;3.22;;;;;;;;;;5011439;28;20408;-62
2023/01/11 01:01:41;;;;;;;4.57;3.75;;;;;;;;;;5009872;28;20405;-62
2023/01/11 01:04:07;;;;;;;3.20;2.90;;;;;;;;;;5009618;28;20044;-62
2023/01/11 01:06:33;;;;;;;4.90;2.55;;;;;;;;;;5002875;28;20069;-62
2023/01/11 01:09:00;;;;;;;2.95;2.30;;;;;;;;;;5003332;28;20046;-62
2023/01/11 01:11:26;;;;;;;4.22;3.10;;;;;;;;;;4989791;28;20563;-62
2023/01/11 01:16:36;;;;;;;5.53;3.40;;;;;;;;;;5011513;28;20492;-62
2023/01/11 01:19:03;;;;;;;4.40;3.15;;;;;;;;;;5009881;28;20038;-62
2023/01/11 01:21:29;;;;;;;5.25;3.88;;;;;;;;;;4993037;28;20128;-62
2023/01/11 01:23:55;;;;;;;4.65;3.22;;;;;;;;;;5008339;28;20070;-62
2023/01/11 01:26:22;;;;;;;5.57;3.88;;;;;;;;;;5011935;28;20060;-61
2023/01/11 01:28:49;;;;;;;4.05;3.20;;;;;;;;;;5010851;28;20052;-62
2023/01/11 01:31:15;;;;;;;5.72;4.20;;;;;;;;;;5008170;28;20041;-62
2023/01/11 01:33:41;;;;;;;4.97;4.00;;;;;;;;;;5011011;28;20081;-62
2023/01/11 01:36:07;;;;;;;4.30;3.88;;;;;;;;;;5009370;28;20038;-62
2023/01/11 01:38:33;;;;;;;4.55;3.65;;;;;;;;;;4992504;28;20091;-62
2023/01/11 01:40:59;;;;;;;4.40;3.70;;;;;;;;;;5010356;28;20563;-62
2023/01/11 01:43:44;;;;;;;5.93;3.63;;;;;;;;;;4993877;28;20462;-62
2023/01/11 01:46:10;;;;;;;5.78;3.65;;;;;;;;;;5011857;28;20044;-62
2023/01/11 01:48:38;;;;;;;4.72;3.80;;;;;;;;;;5009381;28;20408;-61
2023/01/11 01:51:06;;;;;;;4.07;3.15;;;;;;;;;;5002936;28;20463;-62
2023/01/11 01:53:36;;;;;;;4.82;3.85;;;;;;;;;;5010303;28;20134;-62
2023/01/11 01:56:04;;;;;;;4.90;3.30;;;;;;;;;;5010667;28;20514;-62
2023/01/11 01:58:33;;;;;;;7.07;3.97;;;;;;;;;;5009708;28;20141;-63
2023/01/11 02:01:45;;;;;;;6.03;3.67;;;;;;;;;;5010398;28;20038;-62
2023/01/11 02:03:46;;;;;;;5.88;4.07;;;;;;;;;;5007623;28;20046;-63
2023/01/11 02:06:12;;;;;;;5.18;3.00;;;;;;;;;;5011259;28;20084;-62
2023/01/11 02:08:40;;;;;;;6.85;3.85;;;;;;;;;;5009460;28;20100;-62
2023/01/11 02:11:28;;;;;;;6.93;3.92;;;;;;;;;;4990422;28;20030;-62
2023/01/11 02:13:53;;;;;;;5.85;3.78;;;;;;;;;;5004739;28;20381;-62
2023/01/11 02:16:19;;;;;;;6.60;3.30;;;;;;;;;;5011210;28;20048;-62
2023/01/11 02:18:45;;;;;;;6.57;3.30;;;;;;;;;;5008739;28;20034;-63
2023/01/11 02:21:33;;;;;;;4.30;3.28;;;;;;;;;;5052130;23;20397;-71
2023/01/11 02:24:11;;;;;;;3.55;3.20;;;;;;;;;;5051645;28;20044;-70
2023/01/11 02:26:40;;;;;;;5.07;3.33;;;;;;;;;;5067299;28;20029;-70
2023/01/11 02:29:12;;;;;;;4.85;3.38;;;;;;;;;;5062186;28;20136;-70
2023/01/11 02:31:56;;;;;;;7.03;3.65;;;;;;;;;;5070231;28;20035;-70
2023/01/11 02:34:25;;;;;;;6.22;3.33;;;;;;;;;;5067981;28;20079;-71
2023/01/11 02:37:03;;;;;;;5.63;3.30;;;;;;;;;;5076730;28;20116;-70
2023/01/11 02:39:50;;;;;;;9.27;3.58;;;;;;;;;;5079680;28;20086;-71
2023/01/11 02:45:28;;;;;;;4.20;2.65;;;;;;;;;;5059363;28;20535;-69
2023/01/11 02:47:59;;;;;;;4.30;3.13;;;;;;;;;;5089069;28;20051;-69
2023/01/11 02:50:28;;;;;;;5.05;2.75;;;;;;;;;;5075267;28;20032;-70
2023/01/11 02:53:13;;;;;;;4.22;3.13;;;;;;;;;;5069446;28;20078;-69
2023/01/11 02:55:42;;;;;;;5.82;2.60;;;;;;;;;;5061036;28;20124;-69
2023/01/11 02:58:09;;;;;;;5.30;2.80;;;;;;;;;;5042065;28;20071;-70
2023/01/11 03:00:39;;;;;;;4.00;2.40;;;;;;;;;;5065567;28;20039;-70
2023/01/11 03:03:14;;;;;;;2.70;1.80;;;;;;;;;;5061527;28;20048;-71
2023/01/11 03:05:44;;;;;;;4.60;2.30;;;;;;;;;;5069208;28;20044;-71
2023/01/11 03:08:10;;;;;;;3.65;2.65;;;;;;;;;;5064601;28;20123;-71
2023/01/11 03:10:56;;;;;;;3.03;2.08;;;;;;;;;;5065150;28;20116;-70
2023/01/11 03:13:22;;;;;;;3.67;2.70;;;;;;;;;;5065501;28;20040;-70
2023/01/11 03:16:00;;;;;;;3.35;2.42;;;;;;;;;;5062741;28;20043;-70
2023/01/11 03:18:29;;;;;;;2.25;1.52;;;;;;;;;;5062979;28;20040;-70
2023/01/11 03:21:07;;;;;;;4.10;2.40;;;;;;;;;;5068672;28;20032;-70
2023/01/11 03:23:33;;;;;;;3.92;1.60;;;;;;;;;;5076705;28;20054;-70
2023/01/11 03:26:08;;;;;;;4.15;2.00;;;;;;;;;;5077903;28;20397;-70
2023/01/11 03:28:34;;;;;;;3.67;2.30;;;;;;;;;;5072535;28;20044;-69
2023/01/11 03:31:03;;;;;;;2.85;1.88;;;;;;;;;;5071696;28;20524;-69
2023/01/11 03:33:46;;;;;;;2.80;1.95;;;;;;;;;;5071718;28;20032;-69
2023/01/11 03:36:15;;;;;;;3.50;1.90;;;;;;;;;;5066191;28;20479;-69
2023/01/11 03:38:48;;;;;;;2.75;1.98;;;;;;;;;;5074024;28;20548;-69
2023/01/11 03:41:17;;;;;;;3.00;2.22;;;;;;;;;;5075863;28;20051;-69
2023/01/11 03:43:44;;;;;;;2.78;1.90;;;;;;;;;;5074838;28;20438;-69
2023/01/11 03:46:13;;;;;;;3.50;2.08;;;;;;;;;;5073655;28;20113;-69
2023/01/11 03:48:42;;;;;;;2.47;2.13;;;;;;;;;;5073127;28;20399;-69
2023/01/11 03:51:11;;;;;;;2.30;1.85;;;;;;;;;;5072981;28;20028;-69
2023/01/11 03:53:39;;;;;;;2.97;2.22;;;;;;;;;;5079668;28;20037;-69
2023/01/11 03:56:06;;;;;;;1.88;1.67;;;;;;;;;;5086002;28;20064;-69
2023/01/11 03:58:33;;;;;;;2.40;1.90;;;;;;;;;;5093899;28;20051;-69
2023/01/11 04:00:59;;;;;;;2.97;1.70;;;;;;;;;;5083433;28;20044;-69
2023/01/11 04:03:25;;;;;;;3.78;1.95;;;;;;;;;;5085412;28;20094;-69
2023/01/11 04:05:52;;;;;;;1.55;1.38;;;;;;;;;;5085222;28;20064;-69
2023/01/11 04:08:18;;;;;;;2.85;1.98;;;;;;;;;;5077933;28;20123;-69
2023/01/11 04:10:44;;;;;;;2.90;1.90;;;;;;;;;;5085436;28;20072;-69
2023/01/11 04:13:11;;;;;;;2.85;1.58;;;;;;;;;;5073454;28;20059;-69
2023/01/11 04:15:37;;;;;;;2.53;1.63;;;;;;;;;;5078664;28;20095;-69
2023/01/11 04:18:04;;;;;;;1.80;1.50;;;;;;;;;;5074373;28;20040;-69
2023/01/11 04:20:33;;;;;;;2.60;1.63;;;;;;;;;;5089736;28;20039;-69
2023/01/11 04:22:59;;;;;;;3.17;1.60;;;;;;;;;;5064586;28;20036;-69
2023/01/11 04:25:26;;;;;;;2.00;1.70;;;;;;;;;;5078551;28;20044;-69
2023/01/11 04:27:52;;;;;;;1.67;1.17;;;;;;;;;;5089169;28;20036;-69
2023/01/11 04:30:18;;;;;;;2.90;1.52;;;;;;;;;;5076387;28;20040;-69
2023/01/11 04:32:44;;;;;;;1.40;1.30;;;;;;;;;;5072407;28;20032;-69
2023/01/11 04:35:10;;;;;;;1.70;1.30;;;;;;;;;;5084554;28;20039;-69
2023/01/11 04:37:35;;;;;;;1.60;1.42;;;;;;;;;;5089351;28;20282;-69
2023/01/11 04:40:01;;;;;;;2.40;1.67;;;;;;;;;;5082328;28;20032;-70
2023/01/11 04:42:27;;;;;;;2.10;1.50;;;;;;;;;;5074573;28;20403;-69
2023/01/11 04:44:53;;;;;;;1.63;1.45;;;;;;;;;;5078262;28;20044;-69
2023/01/11 04:47:21;;;;;;;2.42;1.50;;;;;;;;;;5069501;28;20048;-69
2023/01/11 04:49:47;;;;;;;1.70;1.42;;;;;;;;;;5079841;28;20068;-69
2023/01/11 04:52:14;;;;;;;2.22;1.70;;;;;;;;;;5075093;28;20254;-69
2023/01/11 04:54:40;;;;;;;3.35;1.83;;;;;;;;;;5074446;28;20028;-68
2023/01/11 04:57:07;;;;;;;2.47;1.42;;;;;;;;;;5080810;28;20028;-68
2023/01/11 04:59:33;;;;;;;3.58;1.70;;;;;;;;;;5075057;28;20052;-68
2023/01/11 05:01:59;;;;;;;4.05;1.70;;;;;;;;;;5064811;28;20578;-68
2023/01/11 05:04:25;;;;;;;3.22;2.10;;;;;;;;;;5061875;28;20081;-67
2023/01/11 05:06:51;;;;;;;3.60;1.80;;;;;;;;;;5068406;28;20436;-68
2023/01/11 05:09:17;;;;;;;5.25;2.25;;;;;;;;;;5070046;28;20048;-68
2023/01/11 05:11:43;;;;;;;5.10;2.80;;;;;;;;;;5083415;28;20086;-68
2023/01/11 05:14:09;;;;;;;8.82;2.83;;;;;;;;;;5075885;28;20036;-68
2023/01/11 05:16:36;;;;;;;5.85;2.58;;;;;;;;;;5071454;28;20048;-68
2023/01/11 05:19:02;;;;;;;6.82;3.15;;;;;;;;;;5070908;28;20039;-68
2023/01/11 05:21:30;;;;;;;6.75;3.45;;;;;;;;;;5048251;28;20052;-68
2023/01/11 05:23:57;;;;;;;6.22;3.30;;;;;;;;;;5070788;28;20041;-68
2023/01/11 05:26:26;;;;;;;7.40;3.65;;;;;;;;;;5072883;28;20406;-68
2023/01/11 05:28:52;;;;;;;7.22;4.07;;;;;;;;;;5076567;28;20497;-67
2023/01/11 05:31:18;;;;;;;11.30;4.63;;;;;;;;;;5070453;28;20036;-68
2023/01/11 05:33:44;;;;;;;12.05;3.88;;;;;;;;;;5069747;28;20513;-67
2023/01/11 05:36:14;;;;;;;9.73;4.72;;;;;;;;;;5070671;28;20028;-68
2023/01/11 05:38:40;;;;;;;6.60;3.97;;;;;;;;;;5074414;28;20041;-68
2023/01/11 05:41:08;;;;;;;11.43;4.93;;;;;;;;;;5062563;28;20097;-68
2023/01/11 05:45:27;;;;;;;11.57;4.40;;;;;;;;;;5069977;28;20109;-71
2023/01/11 05:46:23;;;;;;;15.00;3.80;;;;;;;;;;5067105;28;20240;-70
2023/01/11 05:48:50;;;;;;;13.45;4.20;;;;;;;;;;5085271;28;20051;-70
2023/01/11 05:51:16;;;;;;;13.50;4.07;;;;;;;;;;5071769;28;20398;-70
2023/01/11 05:53:42;;;;;;;14.38;3.88;;;;;;;;;;5069727;28;20033;-69
2023/01/11 05:56:08;;;;;;;13.30;4.22;;;;;;;;;;5053332;28;20043;-68
2023/01/11 05:58:34;;;;;;;14.45;4.75;;;;;;;;;;5070947;28;20212;-68
2023/01/11 06:01:00;;;;;;;17.83;4.57;;;;;;;;;;5068845;28;20051;-68
2023/01/11 06:03:27;;;;;;;18.20;4.20;;;;;;;;;;5071172;28;20052;-68
2023/01/11 06:05:53;;;;;;;18.63;4.78;;;;;;;;;;5050136;28;20506;-68
2023/01/11 06:08:19;;;;;;;16.45;4.07;;;;;;;;;;5076319;28;20547;-68
2023/01/11 06:10:52;;;;;;;15.90;3.47;;;;;;;;;;5072587;28;20032;-68
2023/01/11 06:13:26;;;;;;;17.85;3.67;;;;;;;;;;5074294;28;20069;-68
2023/01/11 06:16:03;;;;;;;19.17;4.07;;;;;;;;;;5082483;28;20032;-68
2023/01/11 06:18:30;;;;;;;17.33;3.20;;;;;;;;;;5091182;28;20040;-68
2023/01/11 06:20:56;;;;;;;24.17;4.25;;;;;;;;;;5091205;28;20396;-68
2023/01/11 06:23:23;;;;;;;20.60;3.60;;;;;;;;;;5077058;28;20045;-68
2023/01/11 06:25:49;;;;;;;21.48;3.42;;;;;;;;;;5072889;28;20402;-68
2023/01/11 06:28:15;;;;;;;17.52;3.33;;;;;;;;;;5091254;28;20036;-68
2023/01/11 06:30:41;;;;;;;17.83;3.45;;;;;;;;;;5073328;28;20387;-68
2023/01/11 06:33:08;;;;;;;23.58;3.90;;;;;;;;;;5056647;28;20123;-68
2023/01/11 06:35:38;;;;;;;26.08;3.60;;;;;;;;;;5072514;28;20041;-68
2023/01/11 06:38:04;;;;;;;21.42;2.85;;;;;;;;;;5056700;28;20051;-68
2023/01/11 06:40:30;;;;;;;17.80;3.30;;;;;;;;;;5087129;28;20107;-68
2023/01/11 06:42:56;;;;;;;19.42;4.05;;;;;;;;;;5069663;28;20040;-68
2023/01/11 06:45:22;;;;;;;18.90;3.17;;;;;;;;;;5068068;28;20086;-68
2023/01/11 06:47:48;;;;;;;22.08;3.15;;;;;;;;;;5067502;28;20493;-68
2023/01/11 06:50:14;;;;;;;20.13;3.38;;;;;;;;;;5070020;28;20048;-68
2023/01/11 06:52:40;;;;;;;22.88;3.28;;;;;;;;;;5065951;28;20033;-68
2023/01/11 06:55:07;;;;;;;21.00;3.30;;;;;;;;;;5081869;28;20126;-68
2023/01/11 06:57:33;;;;;;;17.58;2.85;;;;;;;;;;5079249;28;20489;-68
2023/01/11 06:59:59;;;;;;;26.52;3.42;;;;;;;;;;5083302;28;20041;-68
2023/01/11 07:02:25;;;;;;;25.70;3.50;;;;;;;;;;5079960;28;20040;-69
2023/01/11 07:04:51;;;;;;;20.30;3.58;;;;;;;;;;5074054;28;20371;-69
2023/01/11 07:07:17;;;;;;;24.23;3.42;;;;;;;;;;5076995;28;20040;-68
2023/01/11 07:09:43;;;;;;;20.67;3.17;;;;;;;;;;5090201;28;20044;-68
2023/01/11 07:12:09;;;;;;;22.75;3.63;;;;;;;;;;5078909;28;20105;-69
2023/01/11 07:14:35;;;;;;;20.52;4.00;;;;;;;;;;5070763;28;20119;-68
2023/01/11 07:17:01;;;;;;;24.20;3.95;;;;;;;;;;5082595;28;20087;-69
2023/01/11 07:19:27;;;;;;;21.75;3.28;;;;;;;;;;5073202;28;20036;-68
2023/01/11 07:21:53;;;;;;;22.15;3.85;;;;;;;;;;5068060;28;20063;-68
2023/01/11 07:24:19;;;;;;;24.25;4.03;;;;;;;;;;5078668;28;20504;-69
2023/01/11 07:26:46;;;;;;;21.88;3.33;;;;;;;;;;5069876;28;20045;-69
2023/01/11 07:29:12;;;;;;;21.88;4.22;;;;;;;;;;5049880;28;20044;-69
2023/01/11 07:31:38;;;;;;;25.75;4.43;;;;;;;;;;5071769;28;20119;-68
2023/01/11 07:34:04;;;;;;;22.52;3.42;;;;;;;;;;5068703;28;20123;-68
2023/01/11 07:36:30;;;;;;;25.15;4.38;;;;;;;;;;5067406;28;20051;-69
2023/01/11 07:38:56;;;;;;;20.88;4.18;;;;;;;;;;5072005;28;20485;-69
2023/01/11 07:44:06;;;;;;;25.00;4.25;;;;;;;;;;5061797;28;20481;-68
2023/01/11 07:46:32;;;;;;;19.77;3.80;;;;;;;;;;5081047;28;20040;-68
2023/01/11 07:48:58;;;;;;;23.13;3.90;;;;;;;;;;5069342;28;20041;-68
2023/01/11 07:51:24;;;;;;;30.98;4.55;;;;;;;;;;5073416;28;20097;-68
2023/01/11 07:53:50;;;;;;;18.15;3.90;;;;;;;;;;5071474;28;20541;-69
2023/01/11 07:56:16;;;;;;;18.52;3.95;;;;;;;;;;5071694;28;20550;-68
2023/01/11 07:58:42;;;;;;;19.55;4.40;;;;;;;;;;5070097;28;20044;-68
2023/01/11 08:01:08;;;;;;;19.80;4.13;;;;;;;;;;5071622;28;20079;-68
2023/01/11 08:03:34;;;;;;;22.98;4.47;;;;;;;;;;5069759;28;20148;-69
2023/01/11 08:06:00;;;;;;;21.35;3.88;;;;;;;;;;5082595;28;20147;-68
2023/01/11 08:08:26;;;;;;;23.90;4.00;;;;;;;;;;5071008;28;20052;-68
2023/01/11 08:16:21;;;;;;;18.08;3.20;;;;;;;;;;5074457;28;20040;-68
2023/01/11 08:18:50;;;;;;;18.90;3.25;;;;;;;;;;5067722;28;20549;-69
2023/01/11 08:21:16;;;;;;;18.77;3.63;;;;;;;;;;5057563;22;20053;-63
2023/01/11 08:23:42;;;;;;;19.13;3.28;;;;;;;;;;5023641;28;20049;-62
2023/01/11 08:26:08;;;;;;;15.18;2.97;;;;;;;;;;5022232;28;20140;-62
2023/01/11 08:28:34;;;;;;;15.38;2.53;;;;;;;;;;5032283;28;20752;-63
2023/01/11 08:31:06;;;;;;;11.23;2.70;;;;;;;;;;5016671;28;20034;-62
2023/01/11 08:33:32;;;;;;;15.13;2.42;;;;;;;;;;5032289;28;20120;-63
2023/01/11 08:35:58;;;;;;;12.65;2.28;;;;;;;;;;5026431;28;21339;-62
2023/01/11 08:38:24;;;;;;;13.82;2.40;;;;;;;;;;5013268;28;20053;-62
2023/01/11 08:40:50;;;;;;;16.83;2.53;;;;;;;;;;5033974;28;20502;-62
2023/01/11 08:43:16;;;;;;;9.90;1.98;;;;;;;;;;5030293;28;20120;-62
2023/01/11 08:45:42;;;;;;;8.48;2.25;;;;;;;;;;5032555;28;20411;-62
2023/01/11 08:48:08;;;;;;;16.75;2.20;;;;;;;;;;5014094;28;20068;-63
2023/01/11 08:50:34;;;;;;;18.08;3.15;;;;;;;;;;5026463;28;20128;-62
2023/01/11 08:53:00;;;;;;;19.23;2.80;;;;;;;;;;5031461;28;20037;-62
2023/01/11 08:55:26;;;;;;;15.75;2.63;;;;;;;;;;5029778;28;20068;-62
2023/01/11 08:57:52;;;;;;;12.07;2.40;;;;;;;;;;5034325;28;20131;-62
2023/01/11 09:00:18;;;;;;;12.13;2.13;;;;;;;;;;5029353;28;20038;-62
2023/01/11 09:02:44;;;;;;;14.63;2.58;;;;;;;;;;5015558;28;20434;-62
2023/01/11 09:05:10;;;;;;;15.07;2.50;;;;;;;;;;5031036;28;20037;-62
2023/01/11 09:07:36;;;;;;;18.95;2.47;;;;;;;;;;5025263;28;20109;-62
2023/01/11 09:10:03;;;;;;;18.55;2.60;;;;;;;;;;5032215;28;20124;-62
2023/01/11 09:12:31;;;;;;;19.02;2.40;;;;;;;;;;5031606;28;20048;-62
2023/01/11 09:14:57;;;;;;;13.75;2.50;;;;;;;;;;5037668;28;20048;-62
2023/01/11 09:17:23;;;;;;;12.50;2.60;;;;;;;;;;5039432;28;20038;-62
2023/01/11 09:19:49;;;;;;;14.35;2.58;;;;;;;;;;5030840;28;20046;-62
2023/01/11 09:22:15;;;;;;;14.77;2.50;;;;;;;;;;5032301;28;20780;-62
2023/01/11 09:24:41;;;;;;;20.75;2.75;;;;;;;;;;5020377;28;20052;-62
2023/01/11 09:27:07;;;;;;;21.75;3.17;;;;;;;;;;5029825;28;20408;-63
2023/01/11 09:29:33;;;;;;;16.75;3.08;;;;;;;;;;5030198;28;20037;-62
2023/01/11 09:31:59;;;;;;;16.38;3.17;;;;;;;;;;5025666;28;20033;-62
2023/01/11 09:34:26;;;;;;;17.77;2.53;;;;;;;;;;5031379;28;20080;-62
2023/01/11 09:36:53;;;;;;;15.23;3.03;;;;;;;;;;5026940;28;20087;-62
2023/01/11 09:39:23;;;;;;;16.63;3.10;;;;;;;;;;5028239;28;20077;-63
2023/01/11 09:42:06;;;;;;;14.38;2.40;;;;;;;;;;5007315;28;20049;-62
2023/01/11 09:44:35;;;;;;;15.55;3.03;;;;;;;;;;5031971;28;20053;-62
2023/01/11 09:47:13;;;;;;;13.50;2.40;;;;;;;;;;5029137;28;20469;-62
2023/01/11 09:49:41;;;;;;;15.95;2.38;;;;;;;;;;5030043;28;20396;-62
2023/01/11 09:52:28;;;;;;;16.58;2.20;;;;;;;;;;5026171;28;20052;-62
2023/01/11 09:54:54;;;;;;;10.63;2.22;;;;;;;;;;5022170;28;20172;-62
2023/01/11 09:57:22;;;;;;;11.20;2.30;;;;;;;;;;5023671;28;20045;-62
2023/01/11 09:59:56;;;;;;;11.35;2.25;;;;;;;;;;5030940;28;20625;-62
2023/01/11 10:02:27;;;;;;;14.25;2.35;;;;;;;;;;5023900;28;20050;-62
2023/01/11 10:05:08;;;;;;;14.15;2.63;;;;;;;;;;5029432;28;20037;-62
2023/01/11 10:07:37;;;;;;;15.10;2.80;;;;;;;;;;5032789;28;20548;-62
2023/01/11 10:10:06;;;;;;;11.68;2.63;;;;;;;;;;5020305;28;20046;-62
2023/01/11 10:12:40;;;;;;;16.70;3.47;;;;;;;;;;5028466;28;20112;-62
2023/01/11 10:15:11;;;;;;;10.93;2.78;;;;;;;;;;5022407;28;20037;-62
2023/01/11 10:17:56;;;;;;;13.25;3.05;;;;;;;;;;5029475;28;20506;-62
2023/01/11 10:20:27;;;;;;;13.25;2.55;;;;;;;;;;5029131;28;20073;-62
2023/01/11 10:22:58;;;;;;;19.88;3.10;;;;;;;;;;5032623;28;20495;-62
2023/01/11 10:25:32;;;;;;;21.48;3.17;;;;;;;;;;5022472;28;20516;-62
2023/01/11 10:28:00;;;;;;;17.05;2.75;;;;;;;;;;5007329;28;20052;-62
2023/01/11 10:30:51;;;;;;;16.98;3.53;;;;;;;;;;5028310;28;21233;-62
2023/01/11 10:36:38;;;;;;;17.67;3.30;;;;;;;;;;5033199;28;20056;-62
2023/01/11 10:39:49;;;;;;;13.82;2.75;;;;;;;;;;5033852;28;20033;-62
2023/01/11 10:42:20;;;;;;;11.27;3.10;;;;;;;;;;5015304;28;20042;-62
2023/01/11 10:44:56;;;;;;;14.02;3.65;;;;;;;;;;5015593;28;20488;-62
2023/01/11 10:47:26;;;;;;;16.90;3.40;;;;;;;;;;5029369;28;20048;-62
2023/01/11 10:50:00;;;;;;;15.77;3.38;;;;;;;;;;5034379;28;20117;-62
2023/01/11 10:52:32;;;;;;;17.17;3.80;;;;;;;;;;5034770;28;20046;-62
2023/01/11 10:54:59;;;;;;;13.20;3.35;;;;;;;;;;5034233;28;20041;-62
2023/01/11 10:57:34;;;;;;;18.10;3.60;;;;;;;;;;5034780;28;20129;-62
2023/01/11 11:00:10;;;;;;;16.27;3.67;;;;;;;;;;5034684;28;20069;-62
2023/01/11 11:02:49;;;;;;;12.43;3.88;;;;;;;;;;5033754;28;20081;-62
2023/01/11 11:05:24;;;;;;;15.13;3.50;;;;;;;;;;5014316;28;20522;-62
2023/01/11 11:07:55;;;;;;;15.50;3.50;;;;;;;;;;5034269;28;20041;-62
2023/01/11 11:10:25;;;;;;;17.35;3.92;;;;;;;;;;5016849;28;20125;-62
2023/01/11 11:12:59;;;;;;;16.13;3.55;;;;;;;;;;5034330;28;20041;-62
2023/01/11 11:15:34;;;;;;;13.70;3.45;;;;;;;;;;5031867;28;20044;-62
2023/01/11 11:18:00;;;;;;;14.50;3.63;;;;;;;;;;5034526;28;20116;-62
2023/01/11 11:20:30;;;;;;;15.80;4.05;;;;;;;;;;5033116;28;20041;-62
2023/01/11 11:22:56;;;;;;;17.83;3.45;;;;;;;;;;5033984;28;20045;-62
2023/01/11 11:25:29;;;;;;;19.60;4.05;;;;;;;;;;5033573;28;20042;-62
2023/01/11 11:27:57;;;;;;;17.83;3.88;;;;;;;;;;5034711;28;20398;-62
2023/01/11 11:30:31;;;;;;;18.27;3.30;;;;;;;;;;5033708;28;20069;-62
2023/01/11 11:32:59;;;;;;;16.20;2.85;;;;;;;;;;5033900;28;20419;-62
2023/01/11 11:35:34;;;;;;;15.68;3.20;;;;;;;;;;5032013;28;20080;-62
2023/01/11 11:38:00;;;;;;;18.08;3.08;;;;;;;;;;5019937;28;20121;-62
2023/01/11 11:40:28;;;;;;;17.98;3.78;;;;;;;;;;5024378;28;20045;-62
2023/01/11 11:43:13;;;;;;;11.48;3.25;;;;;;;;;;5033548;28;20112;-62
2023/01/11 11:45:51;;;;;;;13.07;3.47;;;;;;;;;;5032619;28;20494;-61
2023/01/11 11:48:17;;;;;;;13.85;3.50;;;;;;;;;;5033831;28;20523;-62
2023/01/11 11:50:44;;;;;;;16.90;4.03;;;;;;;;;;5034219;28;20044;-62
2023/01/11 11:53:28;;;;;;;17.63;3.70;;;;;;;;;;5032468;28;20041;-62
2023/01/11 11:55:54;;;;;;;17.75;3.45;;;;;;;;;;5032687;28;20380;-61
2023/01/11 11:58:22;;;;;;;15.13;3.08;;;;;;;;;;5032870;28;20068;-61
2023/01/11 12:00:48;;;;;;;17.60;3.20;;;;;;;;;;5033542;28;20061;-62
2023/01/11 12:03:25;;;;;;;22.02;3.65;;;;;;;;;;5033092;28;20395;-61
2023/01/11 12:05:57;;;;;;;13.75;3.30;;;;;;;;;;5032307;28;20037;-61
2023/01/11 12:08:24;;;;;;;11.60;3.42;;;;;;;;;;5031948;28;20116;-61
2023/01/11 12:10:56;;;;;;;15.82;2.90;;;;;;;;;;5033008;28;20077;-62
2023/01/11 12:13:27;;;;;;;15.50;3.20;;;;;;;;;;5033037;28;20052;-62
2023/01/11 12:15:56;;;;;;;21.77;3.72;;;;;;;;;;5032818;28;20140;-62
2023/01/11 12:18:23;;;;;;;14.50;2.55;;;;;;;;;;5016232;28;20065;-62
2023/01/11 12:20:49;;;;;;;14.82;3.03;;;;;;;;;;5033445;28;20466;-62
2023/01/11 12:23:16;;;;;;;17.10;2.90;;;;;;;;;;5030211;28;20069;-62
2023/01/11 12:25:55;;;;;;;13.23;2.42;;;;;;;;;;5033684;28;20037;-62
2023/01/11 12:28:27;;;;;;;13.88;2.80;;;;;;;;;;5031424;28;20036;-62
2023/01/11 12:30:52;;;;;;;;;;;;;;;;;;5033683;28;20132;-63
2023/01/11 12:33:27;;;;;;;17.55;3.00;;;;;;;;;;5032413;28;20038;-63
2023/01/11 12:35:58;;;;;;;14.15;2.60;;;;;;;;;;5022196;28;20061;-62
2023/01/11 12:38:37;;;;;;;17.92;3.00;;;;;;;;;;5032974;28;20499;-62
2023/01/11 12:41:42;;;;;;;16.15;2.80;;;;;;;;;;5012972;28;20714;-62
2023/01/11 12:44:26;;;;;;;17.42;3.15;;;;;;;;;;5025511;28;20561;-62
2023/01/11 12:46:56;;;;;;;13.80;2.75;;;;;;;;;;5033055;28;20073;-62
2023/01/11 12:49:26;;;;;;;20.60;3.00;;;;;;;;;;5032790;28;20045;-62
2023/01/11 12:52:01;;;;;;;10.32;2.28;;;;;;;;;;5031642;28;20033;-62
2023/01/11 12:54:30;;;;;;;18.73;2.53;;;;;;;;;;5031223;28;20052;-62
2023/01/11 12:57:02;;;;;;;13.98;2.72;;;;;;;;;;5032904;28;20033;-63
2023/01/11 12:59:40;;;;;;;13.80;2.60;;;;;;;;;;5031807;28;20084;-62
2023/01/11 13:02:09;;;;;;;19.58;2.85;;;;;;;;;;5032229;28;20049;-61
2023/01/11 13:04:38;;;;;;;14.93;2.78;;;;;;;;;;5031858;28;20045;-61
2023/01/11 13:07:07;;;;;;;16.98;2.85;;;;;;;;;;5025103;28;20041;-62
2023/01/11 13:09:48;;;;;;;13.75;2.00;;;;;;;;;;5026321;28;20041;-62
2023/01/11 13:12:14;;;;;;;;;;;;;;;;;;5032371;28;20056;-62
2023/01/11 13:14:59;;;;;;;22.98;3.35;;;;;;;;;;5032345;28;20370;-62
2023/01/11 13:17:29;;;;;;;12.35;2.50;;;;;;;;;;5031101;28;20037;-62
2023/01/11 13:20:04;;;;;;;17.77;3.30;;;;;;;;;;5031999;28;20041;-62
2023/01/11 13:22:34;;;;;;;13.70;2.65;;;;;;;;;;5028054;28;20037;-62
2023/01/11 13:25:02;;;;;;;19.90;2.88;;;;;;;;;;5031536;28;20037;-62
2023/01/11 13:27:30;;;;;;;16.80;2.72;;;;;;;;;;5032403;28;20056;-62
2023/01/11 13:29:59;;;;;;;9.90;2.15;;;;;;;;;;5030685;28;20045;-62
2023/01/11 13:32:27;;;;;;;18.60;3.17;;;;;;;;;;5032218;28;20030;-62
2023/01/11 13:34:56;;;;;;;15.45;2.90;;;;;;;;;;5031459;28;20546;-62
2023/01/11 13:37:29;;;;;;;16.85;2.65;;;;;;;;;;5031364;28;20463;-62
2023/01/11 13:40:07;;;;;;;20.55;3.40;;;;;;;;;;5031175;28;20496;-62
2023/01/11 13:42:38;;;;;;;17.42;2.90;;;;;;;;;;5031782;28;20076;-62
2023/01/11 13:45:13;;;;;;;16.90;3.08;;;;;;;;;;5030416;28;20044;-62
2023/01/11 13:47:42;;;;;;;17.30;3.15;;;;;;;;;;5021750;28;20039;-62
2023/01/11 13:50:23;;;;;;;11.20;2.38;;;;;;;;;;5023378;28;20057;-62
2023/01/11 13:53:01;;;;;;;17.85;2.80;;;;;;;;;;5020531;28;20528;-62
2023/01/11 13:55:30;;;;;;;20.75;2.22;;;;;;;;;;5021099;28;20048;-62
2023/01/11 13:58:01;;;;;;;17.98;2.88;;;;;;;;;;5022780;28;20272;-62
2023/01/11 14:00:47;;;;;;;14.30;3.05;;;;;;;;;;5007020;28;20530;-62
2023/01/11 14:03:33;;;;;;;13.75;2.63;;;;;;;;;;5024397;28;20050;-62
2023/01/11 14:06:02;;;;;;;17.27;3.17;;;;;;;;;;5012305;28;20080;-62
2023/01/11 14:08:40;;;;;;;15.25;2.97;;;;;;;;;;5025455;28;20048;-62
2023/01/11 14:11:15;;;;;;;17.42;2.65;;;;;;;;;;5027756;28;20033;-62
2023/01/11 14:14:12;;;;;;;19.90;2.97;;;;;;;;;;5025475;28;20029;-62
2023/01/11 14:16:57;;;;;;;14.93;2.55;;;;;;;;;;5025372;28;20033;-62
2023/01/11 14:19:29;;;;;;;14.13;3.22;;;;;;;;;;5031276;28;20037;-62
2023/01/11 14:22:00;;;;;;;18.73;2.63;;;;;;;;;;5043256;22;20454;-67
2023/01/11 14:24:28;;;;;;;19.35;2.70;;;;;;;;;;5035110;28;20057;-67
2023/01/11 14:27:13;;;;;;;19.02;3.00;;;;;;;;;;5040542;28;20041;-68
2023/01/11 14:29:39;;;;;;;14.50;2.88;;;;;;;;;;5016284;28;20045;-67
2023/01/11 14:32:05;;;;;;;13.40;2.30;;;;;;;;;;5029370;28;20044;-67
2023/01/11 14:34:50;;;;;;;18.77;3.13;;;;;;;;;;5035998;28;20049;-67
2023/01/11 14:37:24;;;;;;;11.70;2.65;;;;;;;;;;5036251;28;20041;-67
2023/01/11 14:39:57;;;;;;;12.40;2.58;;;;;;;;;;5029255;28;20037;-67
2023/01/11 14:42:32;;;;;;;18.65;2.53;;;;;;;;;;5026314;28;20099;-67
2023/01/11 14:45:12;;;;;;;14.05;2.45;;;;;;;;;;5029986;28;20533;-68
2023/01/11 14:47:53;;;;;;;12.48;2.42;;;;;;;;;;5032719;28;20551;-67
2023/01/11 14:50:27;;;;;;;8.43;2.30;;;;;;;;;;5028923;28;20040;-67
2023/01/11 14:52:55;;;;;;;15.15;2.40;;;;;;;;;;5025401;28;20368;-68
2023/01/11 14:55:23;;;;;;;13.68;2.67;;;;;;;;;;5026245;28;20072;-67
2023/01/11 14:57:55;;;;;;;14.15;2.97;;;;;;;;;;5027214;28;20041;-67
2023/01/11 15:00:21;;;;;;;16.38;2.47;;;;;;;;;;5026152;28;20053;-67
2023/01/11 15:02:50;;;;;;;12.73;2.10;;;;;;;;;;5027708;28;20136;-67
2023/01/11 15:05:31;;;;;;;17.88;2.60;;;;;;;;;;5027824;28;20045;-67
2023/01/11 15:07:57;;;;;;;;;;;;;;;;;;5025974;28;20052;-67
2023/01/11 15:10:29;;;;;;;12.63;2.78;;;;;;;;;;5034242;28;20007;-67
2023/01/11 15:12:56;;;;;;;15.98;2.80;;;;;;;;;;5029043;28;20380;-67
2023/01/11 15:18:16;;;;;;;16.00;2.50;;;;;;;;;;5027505;28;20088;-67
2023/01/11 15:18:16;;;;;;;16.10;2.67;;;;;;;;;;5026371;28;20033;-67